Time;durP1;ratioP1;P1;durP2;ratioP2;P2;SDS_P1;SDS_P2;PMS_P1;PMS_P2;Temp;Humidity;BMP_temperature;BMP_pressure;BME280_temperature;BME280_humidity;BME280_pressure;Samples;Min_cycle;Max_cycle;Signal;HPM_P1;HPM_P2
2022/02/08 00:00:13;;;;;;;;;;;;;;;19.40;49.34;101394.69;2080248;28;19975;-66
2022/02/08 00:01:13;;;;;;;;;;;;;;;19.41;49.28;101407.38;2079185;28;19921;-65
2022/02/08 00:02:15;;;;;;;;;;;;;;;19.42;49.23;101399.03;2080174;28;19930;-65
2022/02/08 00:03:17;;;;;;;;;;;;;;;19.44;49.13;101397.06;2072794;28;20366;-66
2022/02/08 00:04:18;;;;;;;;;;;;;;;19.45;49.11;101403.38;2070427;28;19917;-65
2022/02/08 00:05:20;;;;;;;;;;;;;;;19.45;49.11;101403.38;2084748;28;19920;-65
2022/02/08 00:07:26;;;;;;;;;;;;;;;19.46;49.09;101405.16;2077420;28;19920;-63
2022/02/08 00:08:26;;;;;;;;;;;;;;;19.44;49.01;101398.94;2081098;28;19994;-64
2022/02/08 00:09:27;;;;;;;;;;;;;;;19.44;49.07;101396.19;2077171;28;20010;-64
2022/02/08 00:10:28;;;;;;;;;;;;;;;19.44;48.99;101397.06;2074266;28;19925;-64
2022/02/08 00:11:29;;;;;;;;;;;;;;;19.44;49.00;101401.66;2082530;28;19952;-63
2022/02/08 00:12:29;;;;;;;;;;;;;;;19.44;49.07;101396.19;2077877;28;20511;-64
2022/02/08 00:13:29;;;;;;;;;;;;;;;19.44;49.00;101390.72;2078551;28;20321;-64
2022/02/08 00:14:30;;;;;;;;;;;;;;;19.43;49.05;101386.25;2083774;28;19927;-64
2022/02/08 00:15:30;;;;;;;;;;;;;;;19.42;49.01;101384.50;2078089;28;19924;-63
2022/02/08 00:16:30;;;;;;;;;;;;;;;19.42;49.03;101387.22;2078626;28;19927;-64
2022/02/08 00:17:31;;;;;;;;;;;;;;;19.42;48.94;101374.41;2082126;28;20087;-63
2022/02/08 00:18:31;;;;;;;;;;;;;;;19.41;48.99;101378.16;2081877;28;20276;-63
2022/02/08 00:19:32;;;;;;;;;;;;;;;19.42;48.98;101376.28;2071987;28;19945;-64
2022/02/08 00:20:32;;;;;;;;;;;;;;;19.42;48.97;101376.28;2073874;28;19970;-64
2022/02/08 00:21:33;;;;;;;;;;;;;;;19.41;49.09;101369.97;2080539;28;20326;-64
2022/02/08 00:22:34;;;;;;;;;;;;;;;19.41;49.06;101369.97;2072269;28;19959;-63
2022/02/08 00:23:34;;;;;;;;;;;;;;;19.41;49.02;101374.56;2074280;28;19948;-64
2022/02/08 00:24:35;;;;;;;;;;;;;;;19.41;49.00;101367.22;2083794;28;19924;-64
2022/02/08 00:25:35;;;;;;;;;;;;;;;19.41;49.07;101363.63;2072000;28;20488;-63
2022/02/08 00:26:36;;;;;;;;;;;;;;;19.41;49.17;101360.88;2071926;28;20415;-65
2022/02/08 00:27:36;;;;;;;;;;;;;;;19.41;49.03;101358.16;2082921;28;19966;-65
2022/02/08 00:28:37;;;;;;;;;;;;;;;19.41;48.86;101358.16;2081554;28;19924;-66
2022/02/08 00:29:37;;;;;;;;;;;;;;;19.41;48.96;101358.16;2079504;28;19912;-65
2022/02/08 00:30:37;;;;;;;;;;;;;;;19.42;48.94;101359.88;2079992;28;20494;-65
2022/02/08 00:31:38;;;;;;;;;;;;;;;19.42;48.95;101359.88;2082926;28;20103;-66
2022/02/08 00:32:38;;;;;;;;;;;;;;;19.42;48.91;101348.94;2079565;28;20380;-65
2022/02/08 00:33:38;;;;;;;;;;;;;;;19.41;49.01;101358.16;2077720;28;20547;-64
2022/02/08 00:34:39;;;;;;;;;;;;;;;19.41;48.91;101358.16;2083477;28;19920;-64
2022/02/08 00:35:39;;;;;;;;;;;;;;;19.42;49.01;101354.41;2081077;28;19920;-65
2022/02/08 00:36:39;;;;;;;;;;;;;;;19.42;48.91;101360.75;2081076;28;19909;-65
2022/02/08 00:37:40;;;;;;;;;;;;;;;19.42;48.90;101365.34;2083604;28;20697;-65
2022/02/08 00:38:40;;;;;;;;;;;;;;;19.42;48.89;101359.88;2070371;28;20300;-65
2022/02/08 00:39:41;;;;;;;;;;;;;;;19.41;48.93;101363.63;2072551;28;19935;-65
2022/02/08 00:40:43;;;;;;;;;;;;;;;19.41;48.87;101363.63;2085350;28;19919;-65
2022/02/08 00:41:43;;;;;;;;;;;;;;;19.41;48.92;101366.38;2072893;28;20111;-64
2022/02/08 00:42:44;;;;;;;;;;;;;;;19.40;49.02;101364.59;2072310;28;20457;-64
2022/02/08 00:44:59;;;;;;;;;;;;;;;19.39;48.93;101369.19;2083506;28;19978;-67
2022/02/08 00:46:06;;;;;;;;;;;;;;;19.40;48.79;101378.28;2072709;28;19931;-67
2022/02/08 00:48:30;;;;;;;;;;;;;;;19.38;48.84;101381.16;2073016;28;19942;-64
2022/02/08 00:49:38;;;;;;;;;;;;;;;19.38;48.77;101378.41;2078230;28;19917;-65
2022/02/08 00:50:40;;;;;;;;;;;;;;;19.40;48.71;101383.75;2080203;28;20133;-68
2022/02/08 00:51:50;;;;;;;;;;;;;;;19.39;48.80;101393.81;2069796;28;19905;-67
2022/02/08 00:52:50;;;;;;;;;;;;;;;19.41;48.98;101399.19;2071147;28;19921;-68
2022/02/08 00:53:51;;;;;;;;;;;;;;;19.41;48.76;101388.25;2080931;28;19916;-67
2022/02/08 00:54:51;;;;;;;;;;;;;;;19.43;48.80;101394.47;2086036;28;19909;-66
2022/02/08 00:55:52;;;;;;;;;;;;;;;19.45;48.75;101395.19;2078189;28;19909;-66
2022/02/08 00:56:52;;;;;;;;;;;;;;;19.48;48.77;101403.16;2079767;28;19905;-67
2022/02/08 00:57:53;;;;;;;;;;;;;;;19.47;48.80;101385.88;2083688;28;20353;-66
2022/02/08 00:58:53;;;;;;;;;;;;;;;19.49;48.76;101393.97;2082373;28;19963;-66
2022/02/08 00:59:54;;;;;;;;;;;;;;;19.49;48.84;101393.97;2078201;28;20230;-66
2022/02/08 01:00:54;;;;;;;;;;;;;;;19.50;48.66;101392.97;2074558;28;19931;-66
2022/02/08 01:01:54;;;;;;;;;;;;;;;19.51;48.67;101391.13;2078871;28;20070;-67
2022/02/08 01:02:57;;;;;;;;;;;;;;;19.51;48.54;101386.50;2080002;28;20737;-66
2022/02/08 01:03:58;;;;;;;;;;;;;;;19.51;48.50;101391.97;2071370;28;20175;-67
2022/02/08 01:05:01;;;;;;;;;;;;;;;19.52;48.50;101388.25;2069959;28;19966;-66
2022/02/08 01:06:06;;;;;;;;;;;;;;;19.51;48.45;101389.25;2078410;28;19921;-67
2022/02/08 01:07:07;;;;;;;;;;;;;;;19.51;48.44;101375.56;2079413;28;19952;-67
2022/02/08 01:08:08;;;;;;;;;;;;;;;19.51;48.35;101383.78;2070448;28;20225;-65
2022/02/08 01:09:16;;;;;;;;;;;;;;;19.51;48.30;101381.03;2068454;28;19917;-64
2022/02/08 01:10:19;;;;;;;;;;;;;;;19.50;48.22;101382.03;2073156;28;20384;-65
2022/02/08 01:11:21;;;;;;;;;;;;;;;19.48;48.37;101381.28;2078676;28;19920;-65
2022/02/08 01:12:22;;;;;;;;;;;;;;;19.49;48.37;101388.50;2073766;28;20251;-64
2022/02/08 01:13:24;;;;;;;;;;;;;;;19.49;48.30;101388.50;2076552;28;20064;-66
2022/02/08 01:14:24;;;;;;;;;;;;;;;19.49;48.43;101394.81;2071703;28;20071;-65
2022/02/08 01:15:25;;;;;;;;;;;;;;;19.49;48.40;101399.44;2065912;28;19913;-66
2022/02/08 01:16:25;;;;;;;;;;;;;;;19.48;48.38;101390.38;2071683;28;19936;-66
2022/02/08 01:17:27;;;;;;;;;;;;;;;19.51;48.27;101402.91;2077561;28;19928;-66
2022/02/08 01:18:29;;;;;;;;;;;;;;;19.50;48.33;101406.66;2072343;28;19913;-66
2022/02/08 01:19:30;;;;;;;;;;;;;;;19.49;48.28;101399.44;2072448;28;20419;-67
2022/02/08 01:20:36;;;;;;;;;;;;;;;19.49;48.42;101410.38;2070310;28;19920;-63
2022/02/08 01:21:37;;;;;;;;;;;;;;;19.51;48.30;101410.25;2074153;28;19967;-62
2022/02/08 01:22:40;;;;;;;;;;;;;;;19.51;48.27;101416.59;2061997;28;20260;-62
2022/02/08 01:23:40;;;;;;;;;;;;;;;19.51;48.23;101418.47;2068007;28;19913;-62
2022/02/08 01:24:43;;;;;;;;;;;;;;;19.48;48.23;101414.09;2074822;28;20515;-63
2022/02/08 01:25:51;;;;;;;;;;;;;;;19.43;48.31;101410.88;2065420;28;19917;-63
2022/02/08 01:27:02;;;;;;;;;;;;;;;19.33;48.36;101416.19;2068087;28;20015;-62
2022/02/08 01:28:24;;;;;;;;;;;;;;;19.26;48.64;101415.78;2069538;28;20573;-62
2022/02/08 01:29:37;;;;;;;;;;;;;;;19.18;48.77;101412.78;2074958;28;20679;-63
2022/02/08 01:34:43;;;;;;;;;;;;;;;19.05;49.32;101418.28;2077311;28;20252;-63
2022/02/08 01:36:06;;;;;;;;;;;;;;;19.05;49.40;101422.91;2064453;28;19918;-63
2022/02/08 01:37:39;;;;;;;;;;;;;;;19.01;49.38;101415.91;2073842;28;19959;-63
2022/02/08 01:38:29;;;;;;;;;;;;;;;19.02;49.47;101417.69;2079364;28;19916;-64
2022/02/08 01:39:55;;;;;;;;;;;;;;;19.01;49.39;101424.09;2075712;28;19946;-63
2022/02/08 01:42:26;;;;;;;;;;;;;;;19.01;49.35;101419.53;2062607;28;19976;-64
2022/02/08 01:49:15;;;;;;;;;;;;;;;19.02;49.37;101413.06;2072107;28;20329;-62
2022/02/08 01:50:17;;;;;;;;;;;;;;;19.03;49.36;101409.38;2071947;28;20425;-63
2022/02/08 01:51:17;;;;;;;;;;;;;;;19.05;49.32;101418.28;2073355;28;19955;-62
2022/02/08 01:52:19;;;;;;;;;;;;;;;19.07;49.36;101412.72;2077021;28;19917;-62
2022/02/08 01:53:19;;;;;;;;;;;;;;;19.09;49.33;101418.94;2070913;28;19917;-62
2022/02/08 01:54:20;;;;;;;;;;;;;;;19.11;49.15;101416.97;2076366;28;20411;-62
2022/02/08 01:55:20;;;;;;;;;;;;;;;19.12;49.08;101413.25;2074974;28;19917;-62
2022/02/08 01:56:20;;;;;;;;;;;;;;;19.14;49.04;101414.00;2073037;28;19917;-62
2022/02/08 01:57:21;;;;;;;;;;;;;;;19.16;49.06;101414.75;2078032;28;19913;-62
2022/02/08 01:58:21;;;;;;;;;;;;;;;19.19;48.92;101419.13;2078170;28;19966;-63
2022/02/08 01:59:23;;;;;;;;;;;;;;;19.21;48.89;101419.88;2078378;28;20640;-62
2022/02/08 02:00:23;;;;;;;;;;;;;;;19.23;48.79;101409.66;2076546;28;19924;-62
2022/02/08 02:01:23;;;;;;;;;;;;;;;19.25;48.78;101410.41;2063498;28;19921;-62
2022/02/08 02:02:24;;;;;;;;;;;;;;;19.27;48.67;101417.50;2062867;28;19921;-62
2022/02/08 02:03:24;;;;;;;;;;;;;;;19.30;48.55;101410.06;2076385;28;19916;-60
2022/02/08 02:04:24;;;;;;;;;;;;;;;19.33;48.59;101418.03;2080431;28;20293;-60
2022/02/08 02:05:25;;;;;;;;;;;;;;;19.34;48.52;101423.38;2060290;28;19945;-63
2022/02/08 02:06:25;;;;;;;;;;;;;;;19.36;48.48;101423.28;2063490;28;19913;-62
2022/02/08 02:07:26;;;;;;;;;;;;;;;19.38;48.34;101424.03;2068667;28;19909;-62
2022/02/08 02:08:27;;;;;;;;;;;;;;;19.38;48.39;101429.50;2081797;28;19971;-62
2022/02/08 02:09:27;;;;;;;;;;;;;;;19.39;48.40;101426.63;2073053;28;19917;-62
2022/02/08 02:10:27;;;;;;;;;;;;;;;19.39;48.31;101426.63;2075970;28;19930;-63
2022/02/08 02:11:28;;;;;;;;;;;;;;;19.39;48.28;101425.75;2078176;28;20361;-61
2022/02/08 02:12:28;;;;;;;;;;;;;;;19.39;48.22;101425.75;2081959;28;20318;-61
2022/02/08 02:13:42;;;;;;;;;;;;;;;19.39;48.32;101426.63;2086766;28;19931;-63
2022/02/08 02:14:43;;;;;;;;;;;;;;;19.41;48.26;101424.66;2083218;28;20328;-61
2022/02/08 02:15:43;;;;;;;;;;;;;;;19.40;48.20;101422.91;2087603;28;19919;-61
2022/02/08 02:17:00;;;;;;;;;;;;;;;19.41;48.11;101429.25;2073482;28;20355;-61
2022/02/08 02:18:00;;;;;;;;;;;;;;;19.40;48.05;101427.50;2072142;28;19960;-61
2022/02/08 02:19:00;;;;;;;;;;;;;;;19.42;48.03;101425.50;2087034;28;20358;-61
2022/02/08 02:20:01;;;;;;;;;;;;;;;19.42;48.03;101426.38;2082810;28;19917;-61
2022/02/08 02:21:03;;;;;;;;;;;;;;;19.44;48.01;101429.00;2084598;28;19951;-63
2022/02/08 02:22:04;;;;;;;;;;;;;;;19.44;47.98;101423.53;2080173;28;19963;-61
2022/02/08 02:23:05;;;;;;;;;;;;;;;19.45;48.04;101420.69;2075599;28;20441;-61
2022/02/08 02:24:06;;;;;;;;;;;;;;;19.45;47.97;101431.63;2080370;28;19956;-61
2022/02/08 02:25:06;;;;;;;;;;;;;;;19.47;47.96;101428.75;2076578;28;19921;-61
2022/02/08 02:26:06;;;;;;;;;;;;;;;19.47;47.82;101423.28;2076598;28;19913;-61
2022/02/08 02:27:09;;;;;;;;;;;;;;;19.47;47.89;101423.28;2070677;28;19921;-61
2022/02/08 02:28:10;;;;;;;;;;;;;;;19.48;47.92;101419.56;2070622;28;20395;-61
2022/02/08 02:29:13;;;;;;;;;;;;;;;19.48;47.92;101411.38;2068678;28;19974;-61
2022/02/08 02:30:14;;;;;;;;;;;;;;;19.49;47.90;101418.56;2072108;28;20419;-61
2022/02/08 02:31:16;;;;;;;;;;;;;;;19.49;47.87;101411.22;2071246;28;20136;-61
2022/02/08 02:32:17;;;;;;;;;;;;;;;19.51;47.91;101407.53;2071575;28;20024;-61
2022/02/08 02:33:17;;;;;;;;;;;;;;;19.49;47.87;101405.75;2078844;28;19925;-61
2022/02/08 02:34:23;;;;;;;;;;;;;;;19.51;47.85;101411.13;2076109;28;19917;-61
2022/02/08 02:35:25;;;;;;;;;;;;;;;19.51;47.77;101413.84;2078544;28;20841;-61
2022/02/08 02:36:26;;;;;;;;;;;;;;;19.52;47.81;101417.47;2073906;28;20149;-63
2022/02/08 02:37:26;;;;;;;;;;;;;;;19.52;47.75;101399.19;2073652;28;19994;-64
2022/02/08 02:38:26;;;;;;;;;;;;;;;19.52;47.78;101410.13;2077540;28;20320;-63
2022/02/08 02:39:27;;;;;;;;;;;;;;;19.53;47.76;101411.00;2078345;28;19948;-63
2022/02/08 02:40:30;;;;;;;;;;;;;;;19.52;47.69;101410.13;2063298;28;20384;-63
2022/02/08 02:41:49;;;;;;;;;;;;;;;19.53;47.69;101416.47;2071560;28;20581;-63
2022/02/08 02:42:50;;;;;;;;;;;;;;;19.54;47.77;101413.59;2083618;28;19958;-62
2022/02/08 02:43:50;;;;;;;;;;;;;;;19.52;47.68;101407.38;2074698;28;20188;-62
2022/02/08 02:44:51;;;;;;;;;;;;;;;19.53;47.62;101422.81;2074288;28;19916;-62
2022/02/08 02:45:51;;;;;;;;;;;;;;;19.52;47.72;101415.59;2084654;28;20358;-62
2022/02/08 02:46:52;;;;;;;;;;;;;;;19.52;47.72;101414.72;2077627;28;19917;-62
2022/02/08 02:47:53;;;;;;;;;;;;;;;19.50;47.75;101423.06;2075254;28;19968;-63
2022/02/08 02:48:54;;;;;;;;;;;;;;;19.51;47.66;101422.06;2077319;28;19917;-63
2022/02/08 02:49:54;;;;;;;;;;;;;;;19.51;47.79;101424.78;2074732;28;20363;-62
2022/02/08 02:50:55;;;;;;;;;;;;;;;19.50;47.80;101417.59;2069041;28;19917;-63
2022/02/08 02:51:56;;;;;;;;;;;;;;;19.49;47.87;101421.31;2076974;28;20389;-63
2022/02/08 02:52:56;;;;;;;;;;;;;;;19.49;47.76;101426.78;2085745;28;20007;-63
2022/02/08 02:53:58;;;;;;;;;;;;;;;19.48;47.87;101422.31;2075909;28;20243;-61
2022/02/08 02:54:58;;;;;;;;;;;;;;;19.48;47.90;101419.56;2074146;28;20547;-60
2022/02/08 02:55:59;;;;;;;;;;;;;;;19.48;47.91;101425.03;2082452;28;19920;-60
2022/02/08 02:57:01;;;;;;;;;;;;;;;19.47;47.73;101428.75;2076310;28;19921;-61
2022/02/08 02:58:02;;;;;;;;;;;;;;;19.46;47.82;101429.75;2064094;28;20228;-60
2022/02/08 02:59:04;;;;;;;;;;;;;;;19.46;47.88;101427.03;2072053;28;19959;-60
2022/02/08 03:00:10;;;;;;;;;;;;;;;19.45;47.85;101422.53;2085502;28;20023;-59
2022/02/08 03:03:45;;;;;;;;;;;;;;;19.46;47.97;101427.03;2080706;28;19920;-62
2022/02/08 03:04:56;;;;;;;;;;;;;;;19.47;47.84;101423.28;2078082;28;19921;-63
2022/02/08 03:19:17;;;;;;;;;;;;;;;19.39;47.91;101420.28;2081403;28;19916;-63
2022/02/08 03:20:18;;;;;;;;;;;;;;;19.38;47.99;101415.81;2078442;28;19916;-63
2022/02/08 03:21:18;;;;;;;;;;;;;;;19.38;48.03;101418.56;2079135;28;19931;-62
2022/02/08 03:22:18;;;;;;;;;;;;;;;19.38;48.04;101419.44;2077942;28;19916;-63
2022/02/08 03:23:19;;;;;;;;;;;;;;;19.36;48.01;101426.00;2082099;28;20019;-63
2022/02/08 03:24:19;;;;;;;;;;;;;;;19.36;48.02;101421.41;2078657;28;20348;-62
2022/02/08 03:25:19;;;;;;;;;;;;;;;19.37;48.12;101422.28;2085474;28;20029;-63
2022/02/08 03:26:20;;;;;;;;;;;;;;;19.35;47.94;101419.63;2078621;28;19952;-63
2022/02/08 03:27:20;;;;;;;;;;;;;;;19.35;48.05;101419.63;2078875;28;19909;-62
2022/02/08 03:28:21;;;;;;;;;;;;;;;19.35;48.08;101421.50;2084235;28;19921;-62
2022/02/08 03:29:22;;;;;;;;;;;;;;;19.35;47.98;101421.50;2070223;28;19959;-63
2022/02/08 03:30:23;;;;;;;;;;;;;;;19.34;48.07;101415.19;2073476;28;19968;-62
2022/02/08 03:31:23;;;;;;;;;;;;;;;19.34;48.17;101412.44;2084307;28;19917;-63
2022/02/08 03:32:24;;;;;;;;;;;;;;;19.36;48.07;101421.41;2080987;28;20021;-63
2022/02/08 03:33:25;;;;;;;;;;;;;;;19.36;48.05;101409.59;2080420;28;19928;-63
2022/02/08 03:34:26;;;;;;;;;;;;;;;19.36;48.01;101415.06;2078215;28;19909;-63
2022/02/08 03:35:26;;;;;;;;;;;;;;;19.35;48.20;101416.91;2078500;28;20648;-63
2022/02/08 03:36:27;;;;;;;;;;;;;;;19.36;48.07;101415.06;2072864;28;19917;-63
2022/02/08 03:37:30;;;;;;;;;;;;;;;19.36;47.96;101409.59;2073207;28;19959;-63
2022/02/08 03:38:38;;;;;;;;;;;;;;;19.35;48.02;101405.97;2078148;28;20188;-63
2022/02/08 03:39:41;;;;;;;;;;;;;;;19.37;48.00;101411.34;2083892;28;19924;-62
2022/02/08 03:40:47;;;;;;;;;;;;;;;19.35;48.04;101405.97;2075142;28;20364;-63
2022/02/08 03:41:53;;;;;;;;;;;;;;;19.34;48.06;101401.50;2076477;28;19958;-62
2022/02/08 03:42:59;;;;;;;;;;;;;;;19.34;48.04;101400.66;2084946;28;19923;-63
2022/02/08 03:43:59;;;;;;;;;;;;;;;19.35;48.03;101396.91;2080948;28;19916;-63
2022/02/08 03:45:02;;;;;;;;;;;;;;;19.33;48.01;101399.78;2078595;28;19921;-64
2022/02/08 03:46:06;;;;;;;;;;;;;;;19.33;47.98;101394.31;2081395;28;20549;-64
2022/02/08 03:47:07;;;;;;;;;;;;;;;19.33;48.03;101401.63;2077924;28;19929;-63
2022/02/08 03:48:09;;;;;;;;;;;;;;;19.31;48.11;101401.75;2078373;28;19917;-63
2022/02/08 03:49:10;;;;;;;;;;;;;;;19.31;48.03;101406.34;2082500;28;20101;-64
2022/02/08 03:50:11;;;;;;;;;;;;;;;19.30;48.04;101404.59;2087006;28;19934;-63
2022/02/08 03:51:13;;;;;;;;;;;;;;;19.28;48.07;101402.00;2078178;28;19917;-63
2022/02/08 03:52:13;;;;;;;;;;;;;;;19.26;48.07;101396.66;2085290;28;20418;-64
2022/02/08 03:53:14;;;;;;;;;;;;;;;19.25;48.14;101397.63;2086182;28;19917;-63
2022/02/08 03:54:15;;;;;;;;;;;;;;;19.25;48.20;101397.63;2083663;28;20389;-63
2022/02/08 03:55:15;;;;;;;;;;;;;;;19.24;48.21;101404.09;2082562;28;20406;-63
2022/02/08 03:56:17;;;;;;;;;;;;;;;19.24;48.29;101398.63;2087360;28;19944;-62
2022/02/08 03:57:17;;;;;;;;;;;;;;;19.24;48.25;101405.97;2080805;28;20511;-63
2022/02/08 03:58:18;;;;;;;;;;;;;;;19.23;48.18;101396.91;2089409;28;19917;-63
2022/02/08 03:59:18;;;;;;;;;;;;;;;19.22;48.19;101403.34;2089699;28;20401;-63
2022/02/08 04:00:19;;;;;;;;;;;;;;;19.22;47.96;101397.88;2084305;28;20017;-63
2022/02/08 04:01:59;;;;;;;;;;;;;;;19.22;48.27;101397.88;2086266;28;19920;-63
2022/02/08 04:02:53;;;;;;;;;;;;;;;19.20;48.22;101391.63;2084025;28;19978;-63
2022/02/08 04:05:29;;;;;;;;;;;;;;;19.21;48.25;101387.94;2079754;28;19917;-63
2022/02/08 04:06:30;;;;;;;;;;;;;;;19.21;48.13;101385.19;2078816;28;20252;-63
2022/02/08 04:08:15;;;;;;;;;;;;;;;19.21;48.16;101379.72;2075355;28;19981;-63
2022/02/08 04:08:57;;;;;;;;;;;;;;;19.21;48.24;101387.94;2071968;28;20007;-63
2022/02/08 04:10:01;;;;;;;;;;;;;;;19.21;48.24;101379.72;2069838;28;19945;-63
2022/02/08 04:11:01;;;;;;;;;;;;;;;19.21;48.22;101371.53;2074088;28;19943;-63
2022/02/08 04:12:06;;;;;;;;;;;;;;;19.21;48.12;101381.59;2080298;28;20367;-63
2022/02/08 04:13:19;;;;;;;;;;;;;;;19.21;48.11;101379.72;2076676;28;20161;-63
2022/02/08 04:15:50;;;;;;;;;;;;;;;19.18;48.21;101373.63;2084336;28;20008;-62
2022/02/08 04:16:52;;;;;;;;;;;;;;;19.18;48.24;101374.50;2082812;28;19931;-63
2022/02/08 04:19:24;;;;;;;;;;;;;;;19.15;48.28;101369.25;2078553;28;20030;-62
2022/02/08 04:32:23;;;;;;;;;;;;;;;19.11;48.30;101350.47;2077630;28;20089;-64
2022/02/08 04:35:04;;;;;;;;;;;;;;;19.11;48.28;101348.66;2079163;28;20310;-63
2022/02/08 04:40:54;;;;;;;;;;;;;;;19.11;48.32;101345.91;2081922;28;19999;-63
2022/02/08 04:44:21;;;;;;;;;;;;;;;19.09;48.31;101347.88;2079644;28;20118;-63
2022/02/08 04:45:30;;;;;;;;;;;;;;;19.10;48.25;101343.28;2077522;28;19938;-63
2022/02/08 04:46:58;;;;;;;;;;;;;;;19.09;48.21;101341.56;2079022;28;20019;-60
2022/02/08 04:48:08;;;;;;;;;;;;;;;19.08;48.23;101354.31;2077581;28;20414;-60
2022/02/08 04:49:09;;;;;;;;;;;;;;;19.07;48.43;101349.88;2078498;28;19916;-61
2022/02/08 04:50:11;;;;;;;;;;;;;;;19.06;48.34;101348.13;2084240;28;19916;-61
2022/02/08 04:51:27;;;;;;;;;;;;;;;19.06;48.31;101348.13;2078602;28;19917;-61
2022/02/08 04:52:28;;;;;;;;;;;;;;;19.04;48.43;101340.03;2083784;28;19931;-64
2022/02/08 04:53:37;;;;;;;;;;;;;;;19.02;48.46;101342.03;2078966;28;19959;-61
2022/02/08 04:55:48;;;;;;;;;;;;;;;19.02;48.43;101346.63;2075079;28;19909;-62
2022/02/08 04:58:04;;;;;;;;;;;;;;;19.01;48.46;101342.13;2086556;28;19951;-62
2022/02/08 05:02:00;;;;;;;;;;;;;;;18.98;48.45;101345.09;2081648;28;20405;-63
2022/02/08 05:35:26;;;;;;;;;;;;;;;18.82;48.60;101331.78;2073646;28;19924;-63
2022/02/08 05:45:11;;;;;;;;;;;;;;;18.80;48.44;101353.75;2069516;28;20620;-63
2022/02/08 05:47:12;;;;;;;;;;;;;;;18.79;48.41;101349.28;2071868;28;20351;-63
2022/02/08 05:48:21;;;;;;;;;;;;;;;18.80;48.58;101345.53;2069457;28;19952;-63
2022/02/08 05:49:27;;;;;;;;;;;;;;;18.79;48.52;101356.56;2071774;28;20217;-62
2022/02/08 05:50:41;;;;;;;;;;;;;;;18.78;48.49;101354.84;2075082;28;19920;-62
2022/02/08 05:51:59;;;;;;;;;;;;;;;18.77;48.56;101353.13;2071765;28;19917;-62
2022/02/08 05:53:59;;;;;;;;;;;;;;;18.75;48.60;101366.84;2069790;28;19917;-62
2022/02/08 05:54:59;;;;;;;;;;;;;;;18.72;48.58;101364.34;2072502;28;19917;-63
2022/02/08 05:56:00;;;;;;;;;;;;;;;18.73;48.75;101354.31;2069864;28;20352;-62
2022/02/08 05:57:00;;;;;;;;;;;;;;;18.72;48.58;101358.91;2068636;28;19936;-62
2022/02/08 05:58:01;;;;;;;;;;;;;;;18.72;48.65;101360.75;2068927;28;19959;-62
2022/02/08 05:59:02;;;;;;;;;;;;;;;18.71;48.72;101359.88;2075044;28;20102;-62
2022/02/08 06:00:02;;;;;;;;;;;;;;;18.70;48.64;101358.13;2073333;28;19970;-62
2022/02/08 06:01:02;;;;;;;;;;;;;;;18.69;48.86;101356.41;2070762;28;19924;-62
2022/02/08 06:02:03;;;;;;;;;;;;;;;18.69;48.57;101366.44;2075005;28;19920;-62
2022/02/08 06:03:06;;;;;;;;;;;;;;;18.69;48.87;101361.88;2074781;28;19909;-62
2022/02/08 06:04:08;;;;;;;;;;;;;;;18.68;48.79;101359.25;2071738;28;19917;-62
2022/02/08 06:05:15;;;;;;;;;;;;;;;18.67;48.79;101358.38;2067599;28;20027;-62
2022/02/08 06:06:15;;;;;;;;;;;;;;;18.66;48.71;101356.63;2068626;28;19951;-62
2022/02/08 06:07:20;;;;;;;;;;;;;;;18.67;48.66;101358.38;2070351;28;19917;-62
2022/02/08 06:08:20;;;;;;;;;;;;;;;18.67;48.71;101358.38;2070400;28;20361;-62
2022/02/08 06:09:21;;;;;;;;;;;;;;;18.67;48.78;101355.66;2069186;28;19909;-63
2022/02/08 06:10:21;;;;;;;;;;;;;;;18.67;48.84;101358.38;2073691;28;20261;-62
2022/02/08 06:11:23;;;;;;;;;;;;;;;18.67;48.67;101354.75;2076963;28;20211;-62
2022/02/08 06:12:25;;;;;;;;;;;;;;;18.67;48.79;101355.66;2069450;28;19924;-62
2022/02/08 06:13:26;;;;;;;;;;;;;;;18.67;48.80;101346.56;2073582;28;19993;-62
2022/02/08 06:14:28;;;;;;;;;;;;;;;18.67;48.72;101355.66;2077363;28;19927;-62
2022/02/08 06:15:29;;;;;;;;;;;;;;;18.66;48.70;101355.75;2077313;28;20007;-63
2022/02/08 06:16:29;;;;;;;;;;;;;;;18.63;48.82;101356.84;2079053;28;20828;-63
2022/02/08 06:17:30;;;;;;;;;;;;;;;18.64;48.79;101353.13;2088628;28;20015;-61
2022/02/08 06:18:30;;;;;;;;;;;;;;;18.63;48.81;101354.13;2080238;28;20581;-61
2022/02/08 06:19:31;;;;;;;;;;;;;;;18.62;48.91;101360.59;2083709;28;19973;-60
2022/02/08 06:20:31;;;;;;;;;;;;;;;18.61;48.88;101359.69;2082279;28;19921;-61
2022/02/08 06:21:32;;;;;;;;;;;;;;;18.60;48.81;101359.84;2080268;28;19920;-60
2022/02/08 06:22:32;;;;;;;;;;;;;;;18.60;48.83;101357.09;2078204;28;19916;-62
2022/02/08 06:23:33;;;;;;;;;;;;;;;18.59;48.85;101358.06;2070066;28;20145;-62
2022/02/08 06:24:33;;;;;;;;;;;;;;;18.58;48.86;101356.34;2070890;28;20237;-63
2022/02/08 06:25:34;;;;;;;;;;;;;;;18.56;48.79;101359.16;2072273;28;19975;-62
2022/02/08 06:26:35;;;;;;;;;;;;;;;18.57;48.88;101357.31;2078807;28;20015;-62
2022/02/08 06:27:35;;;;;;;;;;;;;;;18.56;48.68;101356.44;2070270;28;20296;-62
2022/02/08 06:28:35;;;;;;;;;;;;;;;18.55;48.87;101357.44;2074472;28;20268;-63
2022/02/08 06:29:36;;;;;;;;;;;;;;;18.56;48.89;101355.56;2087357;28;19913;-62
2022/02/08 06:30:36;;;;;;;;;;;;;;;18.54;48.78;101357.53;2079084;28;19952;-62
2022/02/08 06:31:36;;;;;;;;;;;;;;;18.55;48.94;101359.31;2079950;28;19919;-63
2022/02/08 06:32:37;;;;;;;;;;;;;;;18.53;48.90;101355.81;2078203;28;19919;-63
2022/02/08 06:33:37;;;;;;;;;;;;;;;18.54;48.78;101357.53;2081044;28;19957;-62
2022/02/08 06:34:38;;;;;;;;;;;;;;;18.54;48.78;101369.34;2083396;28;20238;-62
2022/02/08 06:35:38;;;;;;;;;;;;;;;18.54;48.70;101360.28;2077428;28;20188;-64
2022/02/08 06:36:38;;;;;;;;;;;;;;;18.55;48.86;101370.22;2079873;28;19917;-62
2022/02/08 06:37:40;;;;;;;;;;;;;;;18.54;48.80;101377.53;2081145;28;20275;-60
2022/02/08 06:38:40;;;;;;;;;;;;;;;18.52;48.81;101368.59;2082934;28;19912;-60
2022/02/08 06:39:41;;;;;;;;;;;;;;;18.54;48.86;101372.06;2080391;28;19942;-63
2022/02/08 06:40:44;;;;;;;;;;;;;;;18.55;48.88;101364.78;2084302;28;19908;-63
2022/02/08 06:41:44;;;;;;;;;;;;;;;18.53;48.89;101374.94;2083326;28;20214;-63
2022/02/08 06:42:45;;;;;;;;;;;;;;;18.54;48.92;101376.66;2085007;28;19925;-63
2022/02/08 06:43:46;;;;;;;;;;;;;;;18.52;48.91;101375.91;2069411;28;20350;-63
2022/02/08 06:44:47;;;;;;;;;;;;;;;18.52;48.81;101371.34;2075696;28;20176;-63
2022/02/08 06:45:47;;;;;;;;;;;;;;;18.52;48.89;101375.91;2088757;28;19926;-63
2022/02/08 06:46:48;;;;;;;;;;;;;;;18.51;48.69;101377.75;2082190;28;19917;-62
2022/02/08 06:47:51;;;;;;;;;;;;;;;18.51;48.82;101371.44;2081586;28;19993;-63
2022/02/08 06:48:52;;;;;;;;;;;;;;;18.50;48.80;101375.16;2078134;28;20864;-62
2022/02/08 06:49:53;;;;;;;;;;;;;;;18.51;48.71;101374.16;2079973;28;20402;-63
2022/02/08 06:50:53;;;;;;;;;;;;;;;18.49;48.91;101381.59;2085858;28;19923;-62
2022/02/08 06:51:54;;;;;;;;;;;;;;;18.48;48.99;101374.41;2084387;28;20118;-62
2022/02/08 06:52:54;;;;;;;;;;;;;;;18.48;48.94;101379.88;2081605;28;19915;-62
2022/02/08 06:53:54;;;;;;;;;;;;;;;18.47;48.91;101378.09;2078167;28;20523;-64
2022/02/08 06:54:55;;;;;;;;;;;;;;;18.46;48.93;101381.84;2080342;28;20297;-63
2022/02/08 06:55:55;;;;;;;;;;;;;;;18.46;48.96;101381.84;2079635;28;19917;-63
2022/02/08 06:56:55;;;;;;;;;;;;;;;18.45;48.85;101369.16;2078487;28;19988;-61
2022/02/08 06:58:07;;;;;;;;;;;;;;;18.42;48.78;101379.34;2085541;28;19924;-63
2022/02/08 06:59:09;;;;;;;;;;;;;;;18.42;48.79;101384.81;2079612;28;20293;-62
2022/02/08 07:00:12;;;;;;;;;;;;;;;18.41;49.04;101380.31;2070902;28;20153;-62
2022/02/08 07:01:12;;;;;;;;;;;;;;;18.41;48.89;101385.78;2067300;28;20014;-62
2022/02/08 07:02:12;;;;;;;;;;;;;;;18.41;48.90;101385.78;2074232;28;19972;-63
2022/02/08 07:03:14;;;;;;;;;;;;;;;18.41;48.90;101384.91;2081169;28;20274;-60
2022/02/08 07:04:15;;;;;;;;;;;;;;;18.39;49.00;101382.28;2081791;28;20168;-63